Time;durP1;ratioP1;P1;durP2;ratioP2;P2;SDS_P1;SDS_P2;PMS_P1;PMS_P2;Temp;Humidity;BMP_temperature;BMP_pressure;BME280_temperature;BME280_humidity;BME280_pressure;Samples;Min_cycle;Max_cycle;Signal;HPM_P1;HPM_P2
2021/05/29 00:00:39;;;;;;;2.23;1.50;;;;;;;8.54;100.00;101728.09;5072981;28;20485;-71
2021/05/29 00:03:05;;;;;;;6.23;1.73;;;;;;;8.64;100.00;101729.25;5072965;28;20451;-71
2021/05/29 00:05:32;;;;;;;2.73;1.10;;;;;;;8.65;100.00;101731.69;5072938;28;20448;-71
2021/05/29 00:07:58;;;;;;;1.97;1.20;;;;;;;8.69;100.00;101729.28;5072961;28;20442;-71
2021/05/29 00:10:24;;;;;;;2.53;1.50;;;;;;;8.56;100.00;101735.94;5073284;28;20809;-70
2021/05/29 00:12:50;;;;;;;1.87;1.20;;;;;;;8.47;100.00;101732.09;5072982;28;20476;-72
2021/05/29 00:15:16;;;;;;;2.33;1.57;;;;;;;8.40;100.00;101732.28;5073082;28;20498;-71
2021/05/29 00:17:42;;;;;;;2.10;1.57;;;;;;;8.41;100.00;101735.81;5072852;28;20457;-71
2021/05/29 00:20:09;;;;;;;1.23;1.13;;;;;;;8.28;100.00;101729.75;5072894;28;20434;-71
2021/05/29 00:22:36;;;;;;;1.33;1.23;;;;;;;8.25;100.00;101729.44;5072702;28;21044;-71
2021/05/29 00:25:03;;;;;;;8.70;1.47;;;;;;;8.18;100.00;101723.44;5072853;28;20518;-72
2021/05/29 00:27:29;;;;;;;2.80;1.20;;;;;;;8.17;100.00;101721.81;5072818;28;20532;-71
2021/05/29 00:29:55;;;;;;;1.33;0.97;;;;;;;8.12;100.00;101719.88;5057281;28;20455;-70
2021/05/29 00:32:21;;;;;;;1.43;1.10;;;;;;;8.14;100.00;101727.72;5052909;28;20838;-73
2021/05/29 00:34:47;;;;;;;1.10;0.70;;;;;;;8.14;100.00;101720.44;5052769;28;20991;-71
2021/05/29 00:37:13;;;;;;;3.80;1.70;;;;;;;8.18;100.00;101716.16;5052608;28;20474;-71
2021/05/29 00:39:39;;;;;;;2.20;1.20;;;;;;;8.21;100.00;101715.66;5052638;28;20468;-71
2021/05/29 00:42:06;;;;;;;1.27;1.17;;;;;;;8.25;100.00;101721.34;5052723;28;20482;-71
2021/05/29 00:44:45;;;;;;;2.30;1.47;;;;;;;8.15;100.00;101714.00;5052550;28;20449;-71
2021/05/29 00:47:10;;;;;;;1.23;0.87;;;;;;;8.16;100.00;101721.00;5052610;28;20469;-71
2021/05/29 00:49:36;;;;;;;2.40;1.73;;;;;;;8.28;100.00;101715.44;5052701;28;20438;-71
2021/05/29 00:52:03;;;;;;;0.70;0.63;;;;;;;8.26;100.00;101717.56;5055405;28;20430;-71
2021/05/29 00:54:30;;;;;;;1.00;0.87;;;;;;;8.21;100.00;101721.06;5056217;28;20517;-72
2021/05/29 00:56:57;;;;;;;1.40;1.30;;;;;;;8.26;100.00;101725.69;5055800;28;20485;-71
2021/05/29 00:59:23;;;;;;;1.20;0.83;;;;;;;8.27;100.00;101724.59;5056127;28;20446;-71
2021/05/29 01:01:49;;;;;;;0.63;0.63;;;;;;;8.32;100.00;101722.78;5055914;28;20531;-71
2021/05/29 01:04:15;;;;;;;1.00;0.80;;;;;;;8.26;100.00;101721.09;5055986;28;20446;-71
2021/05/29 01:06:41;;;;;;;1.43;1.10;;;;;;;8.17;100.00;101719.94;5055899;28;20498;-71
2021/05/29 01:09:07;;;;;;;1.83;0.90;;;;;;;8.12;100.00;101719.88;5055915;28;20438;-71
2021/05/29 01:11:33;;;;;;;2.20;0.83;;;;;;;8.04;100.00;101723.84;5055810;28;20446;-71
2021/05/29 01:14:01;;;;;;;1.00;0.90;;;;;;;7.98;100.00;101718.69;5055838;28;20951;-71
2021/05/29 01:16:43;;;;;;;2.90;1.77;;;;;;;7.97;100.00;101723.28;5055686;28;20470;-71
2021/05/29 01:19:11;;;;;;;1.40;1.00;;;;;;;7.96;100.00;101723.50;5055819;28;20434;-71
2021/05/29 01:21:37;;;;;;;1.53;1.43;;;;;;;7.90;100.00;101727.25;5055621;28;20493;-71
2021/05/29 01:24:04;;;;;;;0.50;0.43;;;;;;;7.95;100.00;101727.28;5058947;28;20834;-71
2021/05/29 01:26:30;;;;;;;1.33;0.77;;;;;;;8.01;100.00;101726.25;5071132;28;20469;-71
2021/05/29 01:28:57;;;;;;;1.00;0.90;;;;;;;8.08;100.00;101730.38;5059819;28;20806;-71
2021/05/29 01:31:26;;;;;;;0.80;0.73;;;;;;;8.11;100.00;101726.38;5055768;28;20443;-71
2021/05/29 01:33:55;;;;;;;0.50;0.47;;;;;;;8.18;100.00;101726.94;5055608;28;20442;-71
2021/05/29 01:36:22;;;;;;;3.03;1.77;;;;;;;8.19;100.00;101730.47;5068406;28;20476;-72
2021/05/29 01:38:49;;;;;;;0.80;0.70;;;;;;;8.18;100.00;101729.66;5075368;28;20945;-72
2021/05/29 01:41:17;;;;;;;2.30;1.00;;;;;;;8.20;100.00;101727.53;5075027;28;21010;-71
2021/05/29 01:43:46;;;;;;;1.43;1.03;;;;;;;8.19;100.00;101736.69;5058665;28;20462;-72
2021/05/29 01:46:13;;;;;;;1.07;0.80;;;;;;;8.09;100.00;101732.00;5055216;28;20466;-71
2021/05/29 01:48:42;;;;;;;1.33;1.17;;;;;;;8.15;100.00;101743.69;5055207;28;20438;-70
2021/05/29 01:51:09;;;;;;;1.13;0.50;;;;;;;8.12;100.00;101737.97;5055130;28;20434;-71
2021/05/29 01:53:36;;;;;;;1.70;0.87;;;;;;;8.09;100.00;101740.09;5055159;28;20453;-72
2021/05/29 01:56:03;;;;;;;1.13;0.90;;;;;;;8.10;100.00;101735.50;5054839;28;20473;-71
2021/05/29 01:58:30;;;;;;;1.13;0.73;;;;;;;8.12;100.00;101736.09;5054758;28;20920;-72
2021/05/29 02:00:56;;;;;;;0.67;0.60;;;;;;;8.06;100.00;101731.72;5054931;28;20486;-72
2021/05/29 02:03:22;;;;;;;0.70;0.60;;;;;;;7.96;100.00;101735.09;5054115;28;20450;-72
2021/05/29 02:05:48;;;;;;;0.90;0.67;;;;;;;7.99;100.00;101740.00;5054833;28;20462;-72
2021/05/29 02:08:15;;;;;;;2.30;1.37;;;;;;;7.94;100.00;101734.56;5054868;28;20446;-72
2021/05/29 02:10:42;;;;;;;2.83;1.27;;;;;;;7.90;100.00;101733.44;5054776;28;20472;-72
2021/05/29 02:13:10;;;;;;;1.23;0.63;;;;;;;7.77;100.00;101736.53;5054669;28;20434;-72
2021/05/29 02:15:39;;;;;;;0.60;0.60;;;;;;;7.62;100.00;101741.78;5054799;28;20434;-73
2021/05/29 02:18:08;;;;;;;1.53;0.70;;;;;;;7.66;100.00;101738.31;5054908;28;20461;-72
2021/05/29 02:20:41;;;;;;;1.47;1.00;;;;;;;7.54;100.00;101740.34;5054512;28;20442;-72
2021/05/29 02:23:08;;;;;;;1.17;0.70;;;;;;;7.56;100.00;101744.41;5054513;28;20796;-72
2021/05/29 02:25:35;;;;;;;0.93;0.50;;;;;;;7.68;100.00;101744.25;5054383;28;20442;-72
2021/05/29 02:28:01;;;;;;;0.60;0.50;;;;;;;7.78;100.00;101741.66;5054438;28;20442;-71
2021/05/29 02:30:27;;;;;;;1.63;1.40;;;;;;;7.86;100.00;101751.19;5054387;28;20446;-71
2021/05/29 02:32:54;;;;;;;0.80;0.80;;;;;;;7.97;100.00;101741.31;5054335;28;20453;-72
2021/05/29 02:35:20;;;;;;;1.37;1.30;;;;;;;8.02;100.00;101727.91;5054234;28;20951;-72
2021/05/29 02:37:46;;;;;;;2.60;0.60;;;;;;;8.06;100.00;101729.03;5054081;28;20462;-71
2021/05/29 02:40:13;;;;;;;1.70;0.90;;;;;;;8.14;100.00;101742.03;5059629;28;20954;-72
2021/05/29 02:42:40;;;;;;;2.30;1.50;;;;;;;8.16;100.00;101737.19;5073796;28;21013;-71
2021/05/29 02:45:07;;;;;;;2.50;1.47;;;;;;;8.21;100.00;101750.75;5074003;28;20433;-71
2021/05/29 02:47:34;;;;;;;2.20;0.70;;;;;;;8.26;100.00;101755.38;5073893;28;20465;-72
2021/05/29 02:50:01;;;;;;;2.03;0.93;;;;;;;8.29;100.00;101755.66;5074000;28;20954;-72
2021/05/29 02:52:27;;;;;;;1.17;1.07;;;;;;;8.23;100.00;101751.28;5073989;28;20491;-72
2021/05/29 02:54:53;;;;;;;1.63;0.77;;;;;;;8.16;100.00;101741.78;5073923;28;20449;-72
2021/05/29 02:57:19;;;;;;;2.97;1.83;;;;;;;8.27;100.00;101748.88;5073404;28;20476;-71
2021/05/29 02:59:45;;;;;;;2.37;1.37;;;;;;;8.25;100.00;101746.47;5073602;28;20950;-71
2021/05/29 03:02:13;;;;;;;1.00;0.90;;;;;;;8.18;100.00;101748.53;5073415;28;20527;-71
2021/05/29 03:04:39;;;;;;;0.70;0.60;;;;;;;8.21;100.00;101747.22;5073983;28;20450;-71
2021/05/29 03:07:06;;;;;;;1.77;0.83;;;;;;;8.16;100.00;101750.69;5073373;28;21045;-71
2021/05/29 03:09:33;;;;;;;2.27;1.50;;;;;;;8.22;100.00;101754.25;5081776;28;20958;-71
2021/05/29 03:11:59;;;;;;;0.80;0.80;;;;;;;8.32;100.00;101749.78;5074464;28;20972;-72
2021/05/29 03:14:26;;;;;;;0.90;0.90;;;;;;;8.39;100.00;101748.75;5073298;28;20460;-71
2021/05/29 03:16:52;;;;;;;1.40;0.87;;;;;;;8.43;100.00;101756.09;5073494;28;20526;-72
2021/05/29 03:19:18;;;;;;;1.07;0.77;;;;;;;8.42;100.00;101764.44;5073554;28;20437;-72
2021/05/29 03:21:45;;;;;;;1.43;1.30;;;;;;;8.35;100.00;101760.03;5073437;28;20489;-72
2021/05/29 03:24:12;;;;;;;17.87;1.40;;;;;;;8.42;100.00;101759.88;5073193;28;20434;-71
2021/05/29 03:26:38;;;;;;;2.93;1.63;;;;;;;8.46;100.00;101758.28;5073421;28;20461;-73
2021/05/29 03:29:05;;;;;;;0.90;0.70;;;;;;;8.45;100.00;101753.13;5073118;28;20777;-73
2021/05/29 03:31:31;;;;;;;2.30;0.83;;;;;;;8.42;100.00;101762.56;5073401;28;20445;-73
2021/05/29 03:33:57;;;;;;;4.30;1.73;;;;;;;8.46;100.00;101752.06;5073459;28;20469;-72
2021/05/29 03:36:23;;;;;;;2.67;1.20;;;;;;;8.57;100.00;101756.47;5073327;28;20469;-73
2021/05/29 03:38:49;;;;;;;2.40;1.07;;;;;;;8.65;100.00;101765.97;5073406;28;20468;-72
2021/05/29 03:41:16;;;;;;;1.83;0.90;;;;;;;8.73;100.00;101752.00;5073314;28;20489;-72
2021/05/29 03:43:42;;;;;;;1.17;0.97;;;;;;;8.78;100.00;101774.44;5073347;28;20519;-72
2021/05/29 03:46:08;;;;;;;0.70;0.70;;;;;;;8.80;100.00;101769.59;5073226;28;20461;-72
2021/05/29 03:48:34;;;;;;;7.70;1.23;;;;;;;8.88;100.00;101773.69;5073263;28;20594;-73
2021/05/29 03:51:01;;;;;;;2.67;1.20;;;;;;;8.97;100.00;101771.31;5072952;28;20453;-72
2021/05/29 03:53:27;;;;;;;5.37;2.17;;;;;;;9.00;100.00;101771.63;5073288;28;20445;-72
2021/05/29 03:55:55;;;;;;;1.63;1.30;;;;;;;9.06;100.00;101775.16;5072878;28;20833;-72
2021/05/29 03:58:22;;;;;;;5.10;2.27;;;;;;;9.12;100.00;101770.59;5069326;22;20507;-64
2021/05/29 04:00:48;;;;;;;5.40;3.13;;;;;;;9.17;100.00;101779.56;5032781;28;20451;-65
2021/05/29 04:03:14;;;;;;;1.37;1.17;;;;;;;9.20;100.00;101784.44;5033028;28;20443;-65
2021/05/29 04:05:40;;;;;;;7.73;2.17;;;;;;;9.19;100.00;101782.81;5032946;28;20451;-64
2021/05/29 04:08:06;;;;;;;6.37;2.30;;;;;;;9.22;100.00;101785.00;5033056;28;20866;-64
2021/05/29 04:10:35;;;;;;;2.40;1.40;;;;;;;9.25;100.00;101781.78;5032733;28;20443;-64
2021/05/29 04:13:01;;;;;;;2.90;1.37;;;;;;;9.30;100.00;101781.81;5032931;28;20791;-65
2021/05/29 04:15:28;;;;;;;4.90;2.10;;;;;;;9.28;100.00;101786.63;5032675;28;20457;-65
2021/05/29 04:17:55;;;;;;;3.40;1.50;;;;;;;9.32;100.00;101793.16;5033119;28;20458;-65
2021/05/29 04:20:23;;;;;;;3.57;1.27;;;;;;;9.33;100.00;101789.38;5032854;28;20438;-65
2021/05/29 04:22:50;;;;;;;3.87;1.03;;;;;;;9.38;100.00;101793.16;5032884;28;20479;-65
2021/05/29 04:25:18;;;;;;;1.90;1.50;;;;;;;9.45;100.00;101799.16;5032649;28;20466;-65
2021/05/29 04:27:45;;;;;;;2.10;1.23;;;;;;;9.43;100.00;101795.91;5036708;28;20463;-65
2021/05/29 04:30:14;;;;;;;1.50;1.40;;;;;;;9.47;100.00;101797.00;5036682;28;20438;-65
2021/05/29 04:32:41;;;;;;;4.47;1.70;;;;;;;9.53;100.00;101791.38;5036364;28;20944;-64
2021/05/29 04:35:08;;;;;;;1.77;1.20;;;;;;;9.58;100.00;101796.78;5036615;28;20449;-65
2021/05/29 04:37:34;;;;;;;4.77;1.63;;;;;;;9.67;100.00;101797.09;5036466;28;20466;-65
2021/05/29 04:40:00;;;;;;;1.97;1.50;;;;;;;9.72;100.00;101799.81;5036449;28;20443;-65
2021/05/29 04:42:26;;;;;;;3.00;1.47;;;;;;;9.74;100.00;101797.69;5036393;28;20919;-65
2021/05/29 04:44:52;;;;;;;6.00;1.83;;;;;;;9.78;100.00;101804.19;5036515;28;20447;-65
2021/05/29 04:47:18;;;;;;;6.10;2.37;;;;;;;9.79;100.00;101802.28;5036347;28;20470;-64
2021/05/29 04:49:45;;;;;;;1.23;1.03;;;;;;;9.75;100.00;101804.72;5035990;28;20457;-65
2021/05/29 04:52:11;;;;;;;2.70;1.30;;;;;;;9.67;100.00;101807.09;5036033;28;20813;-64
2021/05/29 04:54:39;;;;;;;2.83;1.23;;;;;;;9.65;100.00;101803.84;5036000;28;20443;-65
2021/05/29 04:57:06;;;;;;;2.40;1.50;;;;;;;9.60;100.00;101810.03;5036075;28;20507;-65
2021/05/29 04:59:32;;;;;;;3.70;2.00;;;;;;;9.69;100.00;101811.16;5035819;28;20835;-65
2021/05/29 05:01:58;;;;;;;4.60;1.57;;;;;;;9.74;100.00;101810.38;5036014;28;20513;-65
2021/05/29 05:04:24;;;;;;;5.13;2.60;;;;;;;9.81;100.00;101817.16;5035687;28;20435;-65
2021/05/29 05:06:51;;;;;;;3.33;1.30;;;;;;;9.91;100.00;101823.69;5035979;28;20458;-65
2021/05/29 05:09:16;;;;;;;11.83;1.80;;;;;;;9.94;100.00;101832.09;5035846;28;20474;-66
2021/05/29 05:11:42;;;;;;;5.37;1.33;;;;;;;9.85;100.00;101829.09;5035924;28;20439;-66
2021/05/29 05:14:08;;;;;;;1.30;0.60;;;;;;;9.84;100.00;101832.88;5035886;28;20454;-65
2021/05/29 05:16:34;;;;;;;4.37;1.63;;;;;;;9.84;100.00;101832.88;5035825;28;20447;-61
2021/05/29 05:19:01;;;;;;;1.80;1.40;;;;;;;9.83;100.00;101833.16;5035317;28;20474;-62
2021/05/29 05:21:27;;;;;;;2.70;1.63;;;;;;;9.88;100.00;101843.19;5035480;28;21012;-62
2021/05/29 05:23:56;;;;;;;3.97;1.40;;;;;;;9.96;100.00;101845.34;5035644;28;20439;-61
2021/05/29 05:26:22;;;;;;;2.27;1.03;;;;;;;9.96;100.00;101837.22;5035785;28;20443;-61
2021/05/29 05:28:48;;;;;;;3.70;2.17;;;;;;;10.01;100.00;101840.78;5035422;28;20513;-62
2021/05/29 05:31:14;;;;;;;2.00;1.80;;;;;;;10.14;100.00;101839.47;5035466;28;20467;-63
2021/05/29 05:33:41;;;;;;;3.20;1.70;;;;;;;10.11;100.00;101853.53;5035378;28;20533;-61
2021/05/29 05:36:08;;;;;;;2.87;1.23;;;;;;;10.19;100.00;101849.50;5035351;28;20444;-61
2021/05/29 05:38:34;;;;;;;3.93;1.90;;;;;;;10.18;100.00;101851.41;5035170;28;20473;-61
2021/05/29 05:41:01;;;;;;;3.07;1.90;;;;;;;10.27;100.00;101849.84;5035239;28;20447;-61
2021/05/29 05:43:27;;;;;;;1.90;0.90;;;;;;;10.35;100.00;101859.31;5034907;28;20960;-62
2021/05/29 05:45:53;;;;;;;1.30;1.20;;;;;;;10.32;100.00;101852.53;5035208;28;20443;-62
2021/05/29 05:48:19;;;;;;;5.83;2.17;;;;;;;10.41;100.00;101857.44;5034915;28;20471;-62
2021/05/29 05:50:55;;;;;;;2.30;1.90;;;;;;;10.38;100.00;101864.19;5035180;28;20442;-62
2021/05/29 05:53:22;;;;;;;6.43;3.17;;;;;;;10.31;100.00;101860.91;5035134;28;20526;-62
2021/05/29 05:55:53;;;;;;;3.97;1.80;;;;;;;10.37;100.00;101859.88;5035152;28;20450;-62
2021/05/29 05:58:20;;;;;;;13.00;1.80;;;;;;;10.45;100.00;101855.81;5034855;28;20851;-62
2021/05/29 06:00:47;;;;;;;3.73;1.87;;;;;;;10.53;100.00;101850.66;5035170;28;20848;-62
2021/05/29 06:03:13;;;;;;;4.37;1.80;;;;;;;10.58;100.00;101849.84;5034963;28;20447;-62
2021/05/29 06:05:39;;;;;;;5.30;2.13;;;;;;;10.68;100.00;101849.06;5034844;28;20469;-61
2021/05/29 06:08:05;;;;;;;5.27;2.70;;;;;;;10.71;100.00;101845.78;5034768;28;20490;-61
2021/05/29 06:10:31;;;;;;;2.70;1.97;;;;;;;10.89;100.00;101850.69;5034801;28;20804;-62
2021/05/29 06:12:57;;;;;;;2.37;1.97;;;;;;;11.01;100.00;101844.97;5034733;28;20446;-62
2021/05/29 06:18:25;;;;;;;4.17;2.33;;;;;;;11.07;100.00;101863.69;5034710;28;20485;-62
2021/05/29 06:20:51;;;;;;;5.63;2.27;;;;;;;11.15;100.00;101872.34;5034834;28;20420;-62
2021/05/29 06:23:17;;;;;;;4.50;3.07;;;;;;;11.04;100.00;101868.84;5034131;28;20542;-62
2021/05/29 06:25:44;;;;;;;1.83;1.20;;;;;;;11.09;100.00;101872.34;5034534;28;20819;-61
2021/05/29 06:28:10;;;;;;;4.47;2.67;;;;;;;10.98;100.00;101884.31;5034071;28;20451;-62
2021/05/29 06:30:38;;;;;;;7.23;2.57;;;;;;;11.07;100.00;101882.69;5034291;28;20446;-62
2021/05/29 06:33:04;;;;;;;5.40;2.43;;;;;;;11.12;100.00;101884.56;5034122;28;20813;-61
2021/05/29 06:35:30;;;;;;;5.63;2.07;;;;;;;11.09;100.00;101882.41;5034198;28;20462;-61
2021/05/29 06:37:56;;;;;;;5.80;2.80;;;;;;;11.19;100.00;101876.16;5034130;28;20463;-62
2021/05/29 06:40:22;;;;;;;3.97;1.33;;;;;;;11.26;100.00;101888.34;5034134;28;20447;-62
2021/05/29 06:42:48;;;;;;;2.40;1.80;;;;;;;11.31;100.00;101885.63;5034158;28;20479;-61
2021/05/29 06:45:15;;;;;;;1.67;1.50;;;;;;;11.26;100.00;101885.63;5034144;28;20504;-62
2021/05/29 06:47:42;;;;;;;2.80;1.27;;;;;;;11.35;100.00;101892.13;5033605;28;20983;-62
2021/05/29 06:50:09;;;;;;;3.07;1.97;;;;;;;11.42;100.00;101893.72;5033523;28;20861;-63
2021/05/29 06:52:39;;;;;;;1.73;1.00;;;;;;;11.52;99.38;101893.72;5033932;28;20443;-61
2021/05/29 06:58:36;;;;;;;2.80;1.83;;;;;;;11.61;99.57;101894.78;5033922;28;20526;-61
2021/05/29 07:00:48;;;;;;;5.30;1.97;;;;;;;11.77;98.80;101882.78;4953600;29;20446;-62
2021/05/29 07:03:15;;;;;;;1.33;1.10;;;;;;;11.96;99.26;101885.75;5013863;28;20491;-63
2021/05/29 07:05:41;;;;;;;4.60;2.07;;;;;;;12.04;98.09;101898.75;5033755;28;20458;-60
2021/05/29 07:08:07;;;;;;;4.60;2.93;;;;;;;12.21;96.46;101892.94;5033413;28;20842;-64
2021/05/29 07:10:33;;;;;;;6.47;2.77;;;;;;;12.45;96.23;101892.28;5033704;28;20465;-64
2021/05/29 07:12:59;;;;;;;3.23;2.33;;;;;;;12.60;95.94;101889.47;5033700;28;20824;-64
2021/05/29 07:15:30;;;;;;;6.43;1.60;;;;;;;12.57;93.59;101893.56;5033621;28;20478;-64
2021/05/29 07:17:56;;;;;;;2.00;1.50;;;;;;;12.43;92.61;101897.19;5033508;28;20519;-64
2021/05/29 07:20:23;;;;;;;4.13;2.23;;;;;;;12.55;92.97;101892.22;5033432;28;20450;-64
2021/05/29 07:22:49;;;;;;;6.43;2.63;;;;;;;12.72;92.96;101892.66;5033385;28;20483;-64
2021/05/29 07:25:15;;;;;;;3.30;2.20;;;;;;;12.87;92.71;101894.44;5033352;28;20493;-65
2021/05/29 07:27:41;;;;;;;2.23;1.30;;;;;;;13.05;92.61;101890.19;5033061;28;20832;-64
2021/05/29 07:30:08;;;;;;;3.37;1.50;;;;;;;13.17;92.21;101896.09;5033417;28;20489;-64
2021/05/29 07:32:34;;;;;;;2.53;1.60;;;;;;;13.19;90.75;101896.59;5032939;28;20447;-64
2021/05/29 07:35:00;;;;;;;2.40;1.50;;;;;;;13.17;89.15;101901.53;5033381;28;20450;-64
2021/05/29 07:37:27;;;;;;;2.60;1.70;;;;;;;13.32;89.41;101893.22;5033427;28;20462;-64
2021/05/29 07:39:53;;;;;;;2.73;1.30;;;;;;;13.41;88.14;101903.50;5033321;28;20443;-63
2021/05/29 07:42:19;;;;;;;2.80;1.57;;;;;;;13.45;87.48;101896.38;5033103;28;20487;-61
2021/05/29 07:44:45;;;;;;;3.47;1.83;;;;;;;13.58;87.36;101899.22;5033257;28;20819;-61
2021/05/29 07:47:11;;;;;;;3.37;1.90;;;;;;;13.53;85.94;101906.66;5032799;28;20498;-62
2021/05/29 07:49:37;;;;;;;3.03;2.73;;;;;;;13.41;84.80;101907.03;5033152;28;20443;-61
2021/05/29 07:52:04;;;;;;;6.80;2.33;;;;;;;13.36;85.63;101916.06;5033127;28;20925;-62
2021/05/29 07:54:31;;;;;;;3.10;2.80;;;;;;;13.46;85.78;101915.16;5033056;28;20446;-61
2021/05/29 07:56:58;;;;;;;4.60;2.40;;;;;;;13.41;85.14;101912.47;5032851;28;20451;-61
2021/05/29 07:59:24;;;;;;;2.63;1.40;;;;;;;13.60;84.43;101920.75;5032829;28;20801;-62
2021/05/29 08:01:51;;;;;;;3.50;2.47;;;;;;;13.66;84.31;101914.13;5035735;28;20490;-62
2021/05/29 08:04:17;;;;;;;3.47;1.47;;;;;;;13.69;84.81;101920.94;5037052;28;20469;-62
2021/05/29 08:06:44;;;;;;;3.43;1.93;;;;;;;13.79;84.21;101918.09;5037060;28;20451;-62
2021/05/29 08:09:10;;;;;;;2.50;2.00;;;;;;;13.98;82.62;101923.56;5037013;28;20879;-61
2021/05/29 08:11:38;;;;;;;2.60;1.20;;;;;;;14.14;81.80;101925.81;5036664;28;20944;-61
2021/05/29 08:14:06;;;;;;;2.30;1.57;;;;;;;14.15;80.29;101918.47;5036910;28;20447;-61
2021/05/29 08:16:32;;;;;;;3.33;2.20;;;;;;;14.25;80.24;101923.75;5036883;28;20442;-64
2021/05/29 08:18:58;;;;;;;2.20;1.37;;;;;;;14.33;80.45;101925.84;5036490;28;20581;-63
2021/05/29 08:21:25;;;;;;;2.80;1.57;;;;;;;14.43;80.17;101916.72;5036766;28;20482;-64
2021/05/29 08:23:52;;;;;;;2.90;1.87;;;;;;;14.51;80.52;101924.25;5036809;28;20485;-64
2021/05/29 08:26:18;;;;;;;3.60;1.90;;;;;;;14.51;79.70;101923.44;5036475;28;20439;-64
2021/05/29 08:28:45;;;;;;;2.60;2.07;;;;;;;14.44;78.59;101921.09;5036358;28;20517;-64
2021/05/29 08:31:12;;;;;;;2.97;1.87;;;;;;;14.38;79.47;101928.50;5036687;28;20447;-64
2021/05/29 08:33:39;;;;;;;2.70;1.57;;;;;;;14.54;79.82;101929.13;5036577;28;20447;-65
2021/05/29 08:36:05;;;;;;;3.50;1.90;;;;;;;14.61;79.56;101926.06;5036501;28;20442;-64
2021/05/29 08:38:31;;;;;;;3.37;2.30;;;;;;;14.57;79.45;101927.75;5036417;28;20520;-65
2021/05/29 08:40:57;;;;;;;4.77;2.00;;;;;;;14.67;78.91;101933.03;5036118;28;20463;-65
2021/05/29 08:43:24;;;;;;;1.93;1.60;;;;;;;14.72;78.27;101924.78;5036319;28;20490;-66
2021/05/29 08:45:51;;;;;;;3.57;2.17;;;;;;;14.76;77.84;101928.53;5036400;28;20450;-65
2021/05/29 08:48:17;;;;;;;3.30;2.13;;;;;;;14.63;78.86;101930.09;5036423;28;20455;-64
2021/05/29 08:51:12;;;;;;;3.17;1.90;;;;;;;14.49;79.92;101928.41;5036293;28;20447;-65
2021/05/29 08:53:31;;;;;;;3.90;2.03;;;;;;;14.43;79.32;101926.81;5035897;28;20546;-67
2021/05/29 08:55:57;;;;;;;2.97;2.03;;;;;;;14.52;79.56;101927.78;5036242;28;20454;-64
2021/05/29 08:58:23;;;;;;;4.37;2.57;;;;;;;14.77;79.59;101924.69;5035901;28;20525;-64
2021/05/29 09:00:50;;;;;;;5.13;2.10;;;;;;;14.93;78.52;101928.00;5036339;28;20443;-64
2021/05/29 09:03:16;;;;;;;4.17;2.53;;;;;;;15.02;77.03;101919.97;5035904;28;20506;-64
2021/05/29 09:05:46;;;;;;;3.13;1.80;;;;;;;14.97;77.88;101914.59;5035951;28;20492;-64
2021/05/29 09:08:13;;;;;;;4.53;2.63;;;;;;;15.01;77.48;101932.00;5036141;28;20462;-64
2021/05/29 09:10:41;;;;;;;3.60;1.97;;;;;;;15.00;78.01;101914.78;5035811;28;20443;-63
2021/05/29 09:13:12;;;;;;;3.50;1.57;;;;;;;15.07;78.95;101920.69;5035135;28;20439;-65
2021/05/29 09:15:54;;;;;;;6.70;2.57;;;;;;;15.02;77.22;101928.16;5035681;28;20458;-64
2021/05/29 09:18:41;;;;;;;2.57;2.07;;;;;;;15.10;75.89;101924.75;5035286;28;20466;-64
2021/05/29 09:21:31;;;;;;;3.27;2.50;;;;;;;15.19;76.33;101924.88;5030495;28;20446;-64
2021/05/29 09:24:00;;;;;;;2.53;1.57;;;;;;;15.20;76.92;101937.41;5020607;28;20828;-64
2021/05/29 09:26:42;;;;;;;3.10;2.10;;;;;;;15.26;76.55;101934.28;5035553;28;20853;-64
2021/05/29 09:29:14;;;;;;;5.80;2.30;;;;;;;15.27;75.82;101927.72;5035148;28;20439;-64
2021/05/29 09:31:57;;;;;;;3.40;1.90;;;;;;;15.38;75.59;101937.34;5035596;28;20470;-64
2021/05/29 09:34:38;;;;;;;3.20;1.60;;;;;;;15.68;75.43;101928.94;5035345;28;20514;-64
2021/05/29 09:37:09;;;;;;;2.03;1.77;;;;;;;15.39;75.88;101936.22;5035447;28;20498;-64
2021/05/29 09:39:37;;;;;;;3.27;2.30;;;;;;;15.39;77.33;101938.97;5035470;28;20439;-64
2021/05/29 09:42:04;;;;;;;5.03;2.50;;;;;;;15.37;76.11;101935.72;5034909;28;21027;-64
2021/05/29 09:44:31;;;;;;;3.07;1.70;;;;;;;15.28;76.56;101934.81;5035299;28;20451;-64
2021/05/29 09:46:59;;;;;;;3.07;2.10;;;;;;;15.23;77.33;101925.88;5035159;28;20455;-64
2021/05/29 09:49:27;;;;;;;5.90;2.07;;;;;;;15.31;78.44;101926.00;5035168;28;20466;-65
2021/05/29 09:51:53;;;;;;;9.73;3.10;;;;;;;15.46;77.13;101940.50;5035048;28;20479;-65
2021/05/29 09:54:24;;;;;;;6.60;2.23;;;;;;;15.53;75.47;101935.44;5035132;28;20450;-65
2021/05/29 09:59:34;;;;;;;3.93;1.43;;;;;;;15.58;74.08;101927.16;5057922;22;20916;-70
2021/05/29 10:02:02;;;;;;;3.53;2.00;;;;;;;15.67;74.53;101930.03;5034756;28;20479;-70
2021/05/29 10:04:37;;;;;;;4.23;2.40;;;;;;;15.56;75.31;101935.66;5034637;28;20443;-70
2021/05/29 10:07:05;;;;;;;1.93;1.30;;;;;;;15.59;75.85;101939.72;5036121;28;20451;-69
2021/05/29 10:09:32;;;;;;;3.33;2.03;;;;;;;15.69;75.75;101934.09;5038490;28;20463;-69
2021/05/29 10:11:59;;;;;;;2.97;1.70;;;;;;;15.68;73.29;101948.88;5034460;28;20937;-70
2021/05/29 10:14:27;;;;;;;5.73;3.90;;;;;;;15.45;72.88;101938.88;5034580;28;20447;-71
2021/05/29 10:19:58;;;;;;;4.00;2.57;;;;;;;15.39;73.85;101936.22;5034921;28;20477;-70
2021/05/29 10:22:25;;;;;;;4.60;1.97;;;;;;;15.57;74.40;101931.81;5034122;28;21004;-69
2021/05/29 10:24:51;;;;;;;4.37;2.33;;;;;;;15.85;73.95;101931.88;5033215;28;20975;-71
2021/05/29 10:27:24;;;;;;;4.20;2.37;;;;;;;15.85;73.92;101940.09;5034387;28;20439;-69
2021/05/29 10:29:52;;;;;;;4.60;2.30;;;;;;;15.75;72.84;101930.13;5034146;28;20434;-70
2021/05/29 10:32:19;;;;;;;4.20;1.87;;;;;;;15.94;72.54;101940.16;5034235;28;20454;-69
2021/05/29 10:34:51;;;;;;;4.60;2.63;;;;;;;16.23;73.01;101946.13;5034234;28;20439;-70
2021/05/29 10:37:27;;;;;;;3.47;2.00;;;;;;;16.10;69.26;101941.47;5033969;28;20431;-69
2021/05/29 10:39:53;;;;;;;8.87;3.60;;;;;;;15.95;70.33;101939.88;5033842;28;20442;-69
2021/05/29 10:42:30;;;;;;;3.23;2.77;;;;;;;16.17;72.03;101943.81;5033731;28;20548;-68
2021/05/29 10:45:13;;;;;;;2.37;1.90;;;;;;;16.49;70.11;101934.63;5034051;28;20431;-70
2021/05/29 10:48:00;;;;;;;8.90;2.07;;;;;;;16.41;68.31;101938.91;5034217;28;20459;-70
2021/05/29 10:50:54;;;;;;;6.93;1.87;;;;;;;16.34;70.14;101936.59;5033306;28;20478;-71
2021/05/29 10:53:46;;;;;;;7.93;2.03;;;;;;;16.14;71.24;101939.75;5033401;28;20447;-68
2021/05/29 10:56:31;;;;;;;7.93;1.80;;;;;;;16.20;71.31;101934.97;5030155;28;20539;-70
2021/05/29 10:59:09;;;;;;;2.47;1.50;;;;;;;16.39;69.88;101936.47;5031947;28;20509;-72
2021/05/29 11:02:00;;;;;;;3.03;2.27;;;;;;;16.62;69.81;101931.84;5033123;28;20522;-70
2021/05/29 11:04:27;;;;;;;3.60;2.00;;;;;;;16.56;68.22;101935.03;5033130;28;20537;-70
2021/05/29 11:06:54;;;;;;;3.50;2.50;;;;;;;16.57;70.67;101937.44;5032957;28;20470;-70
2021/05/29 11:09:52;;;;;;;2.43;2.20;;;;;;;16.78;69.32;101940.56;5032869;28;20529;-69
2021/05/29 11:12:18;;;;;;;4.10;2.60;;;;;;;17.17;67.37;101939.06;5033234;28;20993;-67
2021/05/29 11:14:49;;;;;;;4.07;2.23;;;;;;;17.23;67.03;101942.50;5033439;28;20474;-69
2021/05/29 11:17:18;;;;;;;5.17;2.73;;;;;;;17.09;65.14;101937.09;5033123;28;20431;-69
2021/05/29 11:20:01;;;;;;;2.40;1.80;;;;;;;16.70;67.07;101946.75;5032994;28;20785;-70
2021/05/29 11:22:37;;;;;;;3.97;2.47;;;;;;;16.77;67.97;101947.13;5033546;28;20541;-71
2021/05/29 11:25:05;;;;;;;2.30;1.80;;;;;;;16.41;68.15;101952.56;5033755;28;20419;-71
2021/05/29 11:27:33;;;;;;;5.37;2.80;;;;;;;16.36;68.75;101950.75;5032771;28;20459;-70
2021/05/29 11:30:00;;;;;;;3.10;2.00;;;;;;;17.45;66.35;101949.88;5032536;28;20852;-71
2021/05/29 11:32:53;;;;;;;5.20;2.73;;;;;;;17.97;61.90;101952.84;5032205;28;20439;-69
2021/05/29 11:35:24;;;;;;;5.60;2.40;;;;;;;18.33;62.06;101942.47;5032698;28;20416;-70
2021/05/29 11:38:00;;;;;;;3.00;2.60;;;;;;;18.90;59.04;101945.13;5033549;28;20455;-69
2021/05/29 11:40:51;;;;;;;5.47;2.47;;;;;;;19.73;57.16;101943.97;5033130;28;20904;-71